createdAt,value
2022-08-17T00:01:27.219Z,9.45
2022-08-17T00:03:54.671Z,9.98
2022-08-17T00:06:29.093Z,9.00
2022-08-17T00:08:57.884Z,10.13
2022-08-17T00:11:36.493Z,9.70
2022-08-17T00:14:07.539Z,10.23
2022-08-17T00:16:57.030Z,10.50
2022-08-17T00:19:24.959Z,9.98
2022-08-17T00:22:00.015Z,9.88
2022-08-17T00:24:39.917Z,9.10
2022-08-17T00:27:06.846Z,9.88
2022-08-17T00:29:33.741Z,9.23
2022-08-17T00:33:14.905Z,9.35
2022-08-17T00:34:49.053Z,9.43
2022-08-17T00:37:15.984Z,9.23
2022-08-17T00:39:42.958Z,9.35
2022-08-17T00:42:14.496Z,10.35
2022-08-17T00:44:41.368Z,10.20
2022-08-17T00:47:08.352Z,10.48
2022-08-17T00:49:35.295Z,9.95
2022-08-17T00:52:11.886Z,10.95
2022-08-17T00:54:41.876Z,10.80
2022-08-17T00:57:20.334Z,11.60
2022-08-17T00:59:56.007Z,12.23
2022-08-17T01:02:30.228Z,11.73
2022-08-17T01:05:01.462Z,12.43
2022-08-17T01:07:28.411Z,11.65
2022-08-17T01:09:55.318Z,11.68
2022-08-17T01:12:22.458Z,11.13
2022-08-17T01:14:49.408Z,11.27
2022-08-17T01:17:16.321Z,12.07
2022-08-17T01:19:43.377Z,11.43
2022-08-17T01:22:14.232Z,11.48
2022-08-17T01:24:43.367Z,11.05
2022-08-17T01:27:10.804Z,10.90
2022-08-17T01:29:38.620Z,10.02
2022-08-17T01:32:06.089Z,11.20
2022-08-17T01:34:37.367Z,11.57
2022-08-17T01:37:11.102Z,11.18
2022-08-17T01:39:40.107Z,10.88
2022-08-17T01:42:26.800Z,11.02
2022-08-17T01:44:56.992Z,11.38
2022-08-17T01:47:24.054Z,11.70
2022-08-17T01:49:50.959Z,11.38
2022-08-17T01:52:17.881Z,10.95
2022-08-17T01:54:46.423Z,10.55
2022-08-17T01:57:13.580Z,10.48
2022-08-17T01:59:40.471Z,9.55
2022-08-17T02:02:07.513Z,10.65
2022-08-17T02:04:34.546Z,11.32
2022-08-17T02:07:01.547Z,10.73
2022-08-17T02:09:29.970Z,10.73
2022-08-17T02:11:58.924Z,10.15
2022-08-17T02:14:25.987Z,9.57
2022-08-17T02:16:53.098Z,10.25
2022-08-17T02:19:20.383Z,10.75
2022-08-17T02:21:50.406Z,10.30
2022-08-17T02:24:59.705Z,10.18
2022-08-17T02:27:23.696Z,10.55
2022-08-17T02:29:50.548Z,9.98
2022-08-17T02:32:28.381Z,10.48
2022-08-17T02:34:58.743Z,10.27
2022-08-17T02:37:26.857Z,11.15
2022-08-17T02:39:54.135Z,10.77
2022-08-17T02:42:26.287Z,9.70
2022-08-17T02:44:53.242Z,10.40
2022-08-17T02:47:20.107Z,10.43
2022-08-17T02:49:54.087Z,10.13
2022-08-17T02:52:42.945Z,9.88
2022-08-17T02:55:15.296Z,9.73
2022-08-17T02:57:42.502Z,10.88
2022-08-17T03:00:12.435Z,10.88
2022-08-17T03:02:40.469Z,10.18
2022-08-17T03:05:08.711Z,9.68
2022-08-17T03:07:35.857Z,9.43
2022-08-17T03:10:03.485Z,9.77
2022-08-17T03:12:36.158Z,8.73
2022-08-17T03:15:04.993Z,9.95
2022-08-17T03:17:31.845Z,10.32
2022-08-17T03:19:59.017Z,10.00
2022-08-17T03:22:37.392Z,10.25
2022-08-17T03:25:10.678Z,10.68
2022-08-17T03:27:38.192Z,9.45
2022-08-17T03:30:10.622Z,10.95
2022-08-17T03:32:43.151Z,10.57
2022-08-17T03:35:11.037Z,10.27
2022-08-17T03:37:39.781Z,9.73
2022-08-17T03:40:08.117Z,9.90
2022-08-17T03:42:38.170Z,10.02
2022-08-17T03:45:06.868Z,10.05
2022-08-17T03:47:52.073Z,10.07
2022-08-17T03:50:19.095Z,9.95
2022-08-17T03:53:04.437Z,9.52
2022-08-17T03:55:49.830Z,10.02
2022-08-17T03:58:16.713Z,9.88
2022-08-17T04:00:46.249Z,11.30
2022-08-17T04:03:13.929Z,10.70
2022-08-17T04:05:40.773Z,10.07
2022-08-17T04:08:07.916Z,9.27
2022-08-17T04:10:41.316Z,10.05
2022-08-17T04:13:12.289Z,9.63
2022-08-17T04:15:39.236Z,10.20
2022-08-17T04:18:07.505Z,9.35
2022-08-17T04:20:34.594Z,10.20
2022-08-17T04:23:02.951Z,9.43
2022-08-17T04:25:32.577Z,10.20
2022-08-17T04:27:59.854Z,9.88
2022-08-17T04:30:27.518Z,10.18
2022-08-17T04:33:06.030Z,9.25
2022-08-17T04:35:41.187Z,10.30
2022-08-17T04:38:10.345Z,9.77
2022-08-17T04:40:55.741Z,10.43
2022-08-17T04:43:24.224Z,9.60
2022-08-17T04:45:57.024Z,10.05
2022-08-17T04:48:38.107Z,10.48
2022-08-17T04:51:10.642Z,10.07
2022-08-17T04:53:39.157Z,11.38
2022-08-17T04:56:06.381Z,11.50
2022-08-17T04:58:33.374Z,9.85
2022-08-17T05:01:00.599Z,9.75
2022-08-17T05:03:27.915Z,11.18
2022-08-17T05:05:54.858Z,10.23
2022-08-17T05:08:21.862Z,10.18
2022-08-17T05:10:49.018Z,10.52
2022-08-17T05:13:23.876Z,10.63
2022-08-17T05:15:53.893Z,11.20
2022-08-17T05:18:21.178Z,11.48
2022-08-17T05:20:51.471Z,11.40
2022-08-17T05:23:20.211Z,10.98
2022-08-17T05:25:48.970Z,11.40
2022-08-17T05:28:18.576Z,11.05
2022-08-17T05:30:49.247Z,11.45
2022-08-17T05:33:21.102Z,10.60
2022-08-17T05:35:49.158Z,10.98
2022-08-17T05:38:17.496Z,10.30
2022-08-17T05:40:44.846Z,10.43
2022-08-17T05:43:21.000Z,12.02
2022-08-17T05:46:00.093Z,11.82
2022-08-17T05:48:35.515Z,10.77
2022-08-17T05:51:34.890Z,12.85
2022-08-17T05:54:16.997Z,12.50
2022-08-17T05:56:43.962Z,12.07
2022-08-17T05:59:28.742Z,11.05
2022-08-17T06:02:02.846Z,11.63
2022-08-17T06:04:34.353Z,13.27
2022-08-17T06:07:06.979Z,13.40
2022-08-17T06:09:59.419Z,13.25
2022-08-17T06:12:37.265Z,12.73
2022-08-17T06:15:55.311Z,12.77
2022-08-17T06:18:23.481Z,13.20
2022-08-17T06:21:04.359Z,14.20
2022-08-17T06:23:48.809Z,13.55
2022-08-17T06:26:22.412Z,14.82
2022-08-17T06:28:58.659Z,14.90
2022-08-17T06:31:29.339Z,15.93
2022-08-17T06:33:57.061Z,17.33
2022-08-17T06:36:42.395Z,17.70
2022-08-17T06:39:27.854Z,17.13
2022-08-17T06:43:05.026Z,20.27
2022-08-17T06:45:07.329Z,19.92
2022-08-17T06:47:52.401Z,21.08
2022-08-17T06:50:27.330Z,20.55
2022-08-17T06:53:00.346Z,25.63
2022-08-17T06:55:37.926Z,24.98
2022-08-17T06:58:09.993Z,25.80
2022-08-17T07:00:44.054Z,25.20
2022-08-17T07:03:21.123Z,26.48
2022-08-17T07:05:53.781Z,25.52
2022-08-17T07:11:13.062Z,25.67
2022-08-17T07:14:11.845Z,25.77
2022-08-17T07:16:46.731Z,23.15
2022-08-17T07:19:18.713Z,24.83
2022-08-17T07:21:46.024Z,25.50
2022-08-17T07:24:26.345Z,24.05
2022-08-17T07:27:21.334Z,24.35
2022-08-17T07:30:00.824Z,23.33
2022-08-17T07:32:34.208Z,22.98
2022-08-17T07:37:40.366Z,23.95
2022-08-17T07:40:19.905Z,22.02
2022-08-17T07:43:05.940Z,22.55
2022-08-17T07:45:51.580Z,23.80
2022-08-17T07:48:23.802Z,22.27
2022-08-17T07:50:53.134Z,23.77
2022-08-17T07:53:23.547Z,22.45
2022-08-17T07:55:51.215Z,24.25
2022-08-17T07:58:23.505Z,23.02
2022-08-17T08:01:10.882Z,20.63
2022-08-17T08:03:43.285Z,22.05
2022-08-17T08:06:24.551Z,21.50
2022-08-17T08:08:54.792Z,21.73
2022-08-17T08:11:35.489Z,21.70
2022-08-17T08:14:21.711Z,22.42
2022-08-17T08:16:59.192Z,23.20
2022-08-17T08:19:26.823Z,22.70
2022-08-17T08:22:02.708Z,25.52
2022-08-17T08:24:36.436Z,24.83
2022-08-17T08:27:04.240Z,22.33
2022-08-17T08:29:52.719Z,23.70
2022-08-17T08:32:54.161Z,24.15
2022-08-17T08:35:29.560Z,23.35
2022-08-17T08:38:23.453Z,22.50
2022-08-17T08:40:56.161Z,21.90
2022-08-17T08:46:31.357Z,26.38
2022-08-17T08:49:19.267Z,18.25
2022-08-17T08:51:53.288Z,18.08
2022-08-17T08:54:35.256Z,20.40
2022-08-17T08:57:27.992Z,17.85
2022-08-17T09:00:14.677Z,17.42
2022-08-17T09:03:10.710Z,19.20
2022-08-17T09:06:32.044Z,19.75
2022-08-17T09:09:18.455Z,18.77
2022-08-17T09:12:01.532Z,16.80
2022-08-17T09:14:36.550Z,17.38
2022-08-17T09:17:22.868Z,17.13
2022-08-17T09:20:00.163Z,17.13
2022-08-17T09:22:38.571Z,16.98
2022-08-17T09:25:17.931Z,17.33
2022-08-17T09:28:00.711Z,16.95
2022-08-17T09:30:29.926Z,18.55
2022-08-17T09:32:59.230Z,17.67
2022-08-17T09:35:36.925Z,17.45
2022-08-17T09:38:19.544Z,16.45
2022-08-17T09:41:10.593Z,18.05
2022-08-17T09:43:52.667Z,18.67
2022-08-17T09:46:25.912Z,17.63
2022-08-17T09:51:52.989Z,17.27
2022-08-17T09:54:42.770Z,17.50
2022-08-17T09:57:31.599Z,16.25
2022-08-17T10:00:16.793Z,14.57
2022-08-17T10:03:18.924Z,17.33
2022-08-17T10:05:56.829Z,16.23
2022-08-17T10:08:38.184Z,16.90
2022-08-17T10:11:27.972Z,14.38
2022-08-17T10:14:35.988Z,15.02
2022-08-17T10:17:09.243Z,14.73
2022-08-17T10:19:45.988Z,15.32
2022-08-17T10:22:55.642Z,15.98
2022-08-17T10:25:56.763Z,14.90
2022-08-17T10:28:30.493Z,15.43
2022-08-17T10:31:23.243Z,14.25
2022-08-17T10:34:11.548Z,14.75
2022-08-17T10:36:48.429Z,14.18
2022-08-17T10:39:33.401Z,12.30
2022-08-17T10:42:13.825Z,12.25
2022-08-17T10:45:05.501Z,11.35
2022-08-17T10:48:07.887Z,13.65
2022-08-17T10:50:59.931Z,13.50
2022-08-17T10:53:32.686Z,13.90
2022-08-17T10:56:15.474Z,12.57
2022-08-17T10:58:55.273Z,13.02
2022-08-17T11:01:58.300Z,11.65
2022-08-17T11:04:41.044Z,11.88
2022-08-17T11:07:20.765Z,11.45
2022-08-17T11:10:03.049Z,12.00
2022-08-17T11:12:30.036Z,11.88
2022-08-17T11:15:03.250Z,13.57
2022-08-17T11:17:53.524Z,12.45
2022-08-17T11:20:52.646Z,13.20
2022-08-17T11:23:23.887Z,12.43
2022-08-17T11:25:53.440Z,12.05
2022-08-17T11:28:23.067Z,11.48
2022-08-17T11:30:55.235Z,11.95
2022-08-17T11:33:36.940Z,11.77
2022-08-17T11:36:26.991Z,11.48
2022-08-17T11:39:15.884Z,11.50
2022-08-17T11:42:01.201Z,10.32
2022-08-17T11:44:56.154Z,10.45
2022-08-17T11:48:28.329Z,10.07
2022-08-17T11:51:25.730Z,10.23
2022-08-17T11:54:21.508Z,9.38
2022-08-17T11:56:46.441Z,9.82
2022-08-17T11:59:37.101Z,9.70
2022-08-17T12:02:31.591Z,8.93
2022-08-17T12:05:14.367Z,8.82
2022-08-17T12:07:43.264Z,8.70
2022-08-17T12:10:12.171Z,9.27
2022-08-17T12:12:40.435Z,8.65
2022-08-17T12:15:11.002Z,8.90
2022-08-17T12:17:40.691Z,8.85
2022-08-17T12:20:33.362Z,8.95
2022-08-17T12:23:17.890Z,8.55
2022-08-17T12:25:56.725Z,9.18
2022-08-17T12:28:25.196Z,8.50
2022-08-17T12:30:52.329Z,8.40
2022-08-17T12:33:25.665Z,7.90
2022-08-17T12:36:00.271Z,8.18
2022-08-17T12:38:33.046Z,8.80
2022-08-17T12:41:20.523Z,8.80
2022-08-17T12:44:02.991Z,8.35
2022-08-17T12:46:33.559Z,8.13
2022-08-17T12:49:26.530Z,7.68
2022-08-17T12:52:04.543Z,8.27
2022-08-17T12:54:37.811Z,8.88
2022-08-17T12:57:13.403Z,8.02
2022-08-17T12:59:45.602Z,9.05
2022-08-17T13:02:20.794Z,8.93
2022-08-17T13:04:47.723Z,8.73
2022-08-17T13:07:28.024Z,9.30
2022-08-17T13:09:54.954Z,9.68
2022-08-17T13:12:33.162Z,9.63
2022-08-17T13:15:00.328Z,9.73
2022-08-17T13:17:29.349Z,8.93
2022-08-17T13:19:56.222Z,8.85
2022-08-17T13:22:24.217Z,9.23
2022-08-17T13:24:56.338Z,9.63
2022-08-17T13:27:25.121Z,8.13
2022-08-17T13:29:56.359Z,7.13
2022-08-17T13:32:39.893Z,7.40
2022-08-17T13:35:41.379Z,7.32
2022-08-17T13:38:37.543Z,7.40
2022-08-17T13:41:07.359Z,6.97
2022-08-17T13:43:52.543Z,8.07
2022-08-17T13:46:26.556Z,7.72
2022-08-17T13:49:09.546Z,7.47
2022-08-17T13:51:43.138Z,8.43
2022-08-17T13:54:39.689Z,8.95
2022-08-17T13:57:12.769Z,10.40
2022-08-17T14:02:22.600Z,10.68
2022-08-17T14:04:54.169Z,12.07
2022-08-17T14:07:31.705Z,9.00
2022-08-17T14:10:06.597Z,10.50
2022-08-17T14:12:34.202Z,10.30
2022-08-17T14:15:01.204Z,9.93
2022-08-17T14:17:34.965Z,8.70
2022-08-17T14:20:07.065Z,8.23
2022-08-17T14:22:35.629Z,8.32
2022-08-17T14:25:02.700Z,7.90
2022-08-17T14:27:32.011Z,7.30
2022-08-17T14:29:59.167Z,6.22
2022-08-17T14:32:33.988Z,5.60
2022-08-17T14:35:01.305Z,6.05
2022-08-17T14:37:28.603Z,5.57
2022-08-17T14:39:56.613Z,4.88
2022-08-17T14:42:25.887Z,4.68
2022-08-17T14:44:55.793Z,5.20
2022-08-17T14:47:22.690Z,5.18
2022-08-17T14:49:49.671Z,5.45
2022-08-17T14:52:21.848Z,5.13
2022-08-17T14:54:51.303Z,5.80
2022-08-17T14:57:25.899Z,5.20
2022-08-17T15:00:00.944Z,4.88
2022-08-17T15:02:30.092Z,5.32
2022-08-17T15:05:05.323Z,4.85
2022-08-17T15:07:32.499Z,4.88
2022-08-17T15:10:01.465Z,4.35
2022-08-17T15:12:32.756Z,3.95
2022-08-17T15:15:01.149Z,4.25
2022-08-17T15:17:44.862Z,4.10
2022-08-17T15:20:15.269Z,4.20
2022-08-17T15:22:42.591Z,4.95
2022-08-17T15:25:10.539Z,4.22
2022-08-17T15:27:37.563Z,4.53
2022-08-17T15:30:08.091Z,5.18
2022-08-17T15:32:36.547Z,5.35
2022-08-17T15:35:04.294Z,4.43
2022-08-17T15:37:32.157Z,5.13
2022-08-17T15:40:01.297Z,6.03
2022-08-17T15:42:29.340Z,5.68
2022-08-17T15:44:56.424Z,5.90
2022-08-17T15:47:23.401Z,6.30
2022-08-17T15:49:50.903Z,6.72
2022-08-17T15:52:19.081Z,5.97
2022-08-17T15:54:53.433Z,6.07
2022-08-17T15:57:20.490Z,5.38
2022-08-17T15:59:47.738Z,4.82
2022-08-17T16:03:47.144Z,5.20
2022-08-17T16:05:14.254Z,4.10
2022-08-17T16:07:44.603Z,4.47
2022-08-17T16:10:16.649Z,3.92
2022-08-17T16:12:46.660Z,2.88
2022-08-17T16:15:13.845Z,2.53
2022-08-17T16:17:43.947Z,2.60
2022-08-17T16:20:20.472Z,2.70
2022-08-17T16:22:49.032Z,2.10
2022-08-17T16:25:21.142Z,2.60
2022-08-17T16:27:53.408Z,2.20
2022-08-17T16:30:22.614Z,1.80
2022-08-17T16:32:51.369Z,1.65
2022-08-17T16:35:20.412Z,2.35
2022-08-17T16:37:47.614Z,1.83
2022-08-17T16:40:17.698Z,2.30
2022-08-17T16:42:45.381Z,2.38
2022-08-17T16:45:16.711Z,2.42
2022-08-17T16:47:43.991Z,2.67
2022-08-17T16:50:15.300Z,2.40
2022-08-17T16:52:42.277Z,2.88
2022-08-17T16:55:09.851Z,2.95
2022-08-17T16:57:50.040Z,3.83
2022-08-17T17:00:17.974Z,3.08
2022-08-17T17:02:47.214Z,2.78
2022-08-17T17:05:20.035Z,2.63
2022-08-17T17:07:58.884Z,3.42
2022-08-17T17:10:39.788Z,3.08
2022-08-17T17:13:25.686Z,3.03
2022-08-17T17:16:24.050Z,3.05
2022-08-17T17:19:08.262Z,3.90
2022-08-17T17:22:03.805Z,3.70
2022-08-17T17:24:49.955Z,3.85
2022-08-17T17:27:42.577Z,3.75
2022-08-17T17:30:27.713Z,4.70
2022-08-17T17:33:00.927Z,6.40
2022-08-17T17:35:53.434Z,4.25
2022-08-17T17:38:34.686Z,4.43
2022-08-17T17:41:04.499Z,4.10
2022-08-17T17:43:40.147Z,4.72
2022-08-17T17:46:27.039Z,5.15
2022-08-17T17:48:55.313Z,4.35
2022-08-17T17:52:03.568Z,7.95
2022-08-17T17:54:52.321Z,5.40
2022-08-17T17:57:44.989Z,5.65
2022-08-17T18:00:23.574Z,4.30
2022-08-17T18:03:08.681Z,4.85
2022-08-17T18:05:57.366Z,4.40
2022-08-17T18:08:52.823Z,4.80
2022-08-17T18:11:39.523Z,3.95
2022-08-17T18:14:42.231Z,4.78
2022-08-17T18:17:09.225Z,4.72
2022-08-17T18:19:39.851Z,5.22
2022-08-17T18:22:14.095Z,5.38
2022-08-17T18:24:43.367Z,4.95
2022-08-17T18:27:39.194Z,5.05
2022-08-17T18:30:15.184Z,4.97
2022-08-17T18:32:43.667Z,4.97
2022-08-17T18:35:10.560Z,5.70
2022-08-17T18:37:48.966Z,5.90
2022-08-17T18:40:21.623Z,5.88
2022-08-17T18:42:57.500Z,5.75
2022-08-17T18:45:42.705Z,5.65
2022-08-17T18:48:33.082Z,5.53
2022-08-17T18:51:26.283Z,6.25
2022-08-17T18:54:14.790Z,6.40
2022-08-17T18:56:52.507Z,6.13
2022-08-17T18:59:39.759Z,6.38
2022-08-17T19:02:26.131Z,6.03
2022-08-17T19:05:02.646Z,6.07
2022-08-17T19:07:32.128Z,7.32
2022-08-17T19:10:14.804Z,6.70
2022-08-17T19:13:00.863Z,6.37
2022-08-17T19:15:33.271Z,6.55
2022-08-17T19:18:15.450Z,5.38
2022-08-17T19:20:53.307Z,6.15
2022-08-17T19:23:37.222Z,5.60
2022-08-17T19:26:51.110Z,6.75
2022-08-17T19:28:57.836Z,5.78
2022-08-17T19:31:26.802Z,5.43
2022-08-17T19:33:54.649Z,5.55
2022-08-17T19:36:26.216Z,5.60
2022-08-17T19:39:26.331Z,6.78
2022-08-17T19:42:06.094Z,5.85
2022-08-17T19:44:59.102Z,6.32
2022-08-17T19:47:55.582Z,6.33
2022-08-17T19:50:47.373Z,7.93
2022-08-17T19:53:36.678Z,6.30
2022-08-17T19:56:20.691Z,5.70
2022-08-17T19:58:57.120Z,5.00
2022-08-17T20:01:38.877Z,6.25
2022-08-17T20:04:31.815Z,5.82
2022-08-17T20:07:25.972Z,5.25
2022-08-17T20:10:34.260Z,4.85
2022-08-17T20:13:04.295Z,4.53
2022-08-17T20:15:33.562Z,5.80
2022-08-17T20:18:01.463Z,4.90
2022-08-17T20:20:35.877Z,5.22
2022-08-17T20:23:26.070Z,5.07
2022-08-17T20:26:19.068Z,5.35
2022-08-17T20:29:14.366Z,5.63
2022-08-17T20:31:42.582Z,5.03
2022-08-17T20:34:38.003Z,5.22
2022-08-17T20:37:11.000Z,5.93
2022-08-17T20:39:43.215Z,5.68
2022-08-17T20:42:22.411Z,5.22
2022-08-17T20:44:51.541Z,5.75
2022-08-17T20:47:26.908Z,6.35
2022-08-17T20:49:57.367Z,5.57
2022-08-17T20:52:45.563Z,6.03
2022-08-17T20:55:34.295Z,6.10
2022-08-17T20:58:17.070Z,6.38
2022-08-17T21:00:44.856Z,6.68
2022-08-17T21:03:22.506Z,6.55
2022-08-17T21:06:00.696Z,7.13
2022-08-17T21:08:45.783Z,6.63
2022-08-17T21:12:02.640Z,7.10
2022-08-17T21:14:31.076Z,6.85
2022-08-17T21:17:24.164Z,6.55
2022-08-17T21:20:09.757Z,7.53
2022-08-17T21:23:02.218Z,6.70
2022-08-17T21:26:00.934Z,6.43
2022-08-17T21:29:29.502Z,6.85
2022-08-17T21:32:10.832Z,7.03
2022-08-17T21:34:43.166Z,6.18
2022-08-17T21:37:22.294Z,6.20
2022-08-17T21:39:55.229Z,6.28
2022-08-17T21:42:47.861Z,6.53
2022-08-17T21:45:29.964Z,6.05
2022-08-17T21:48:24.577Z,6.53
2022-08-17T21:51:08.927Z,7.10
2022-08-17T21:53:43.533Z,6.25
2022-08-17T21:56:11.589Z,6.45
2022-08-17T21:58:45.441Z,6.53
2022-08-17T22:01:29.902Z,6.82
2022-08-17T22:04:16.759Z,6.50
2022-08-17T22:06:52.578Z,6.63
2022-08-17T22:09:28.289Z,6.10
2022-08-17T22:11:59.985Z,7.00
2022-08-17T22:14:51.506Z,6.75
2022-08-17T22:17:45.303Z,6.40
2022-08-17T22:20:17.633Z,7.35
2022-08-17T22:23:12.268Z,6.88
2022-08-17T22:26:00.084Z,7.15
2022-08-17T22:28:51.662Z,7.07
2022-08-17T22:31:29.444Z,6.95
2022-08-17T22:34:02.156Z,7.30
2022-08-17T22:36:29.839Z,7.47
2022-08-17T22:39:00.243Z,7.13
2022-08-17T22:41:48.457Z,6.90
2022-08-17T22:44:29.862Z,7.47
2022-08-17T22:47:16.318Z,6.68
2022-08-17T22:49:53.161Z,6.82
2022-08-17T22:53:10.741Z,6.85
2022-08-17T22:55:56.189Z,6.97
2022-08-17T22:58:42.428Z,6.85
2022-08-17T23:01:25.819Z,6.65
2022-08-17T23:04:01.349Z,6.28
2022-08-17T23:06:28.704Z,5.75
2022-08-17T23:08:56.486Z,6.40
2022-08-17T23:11:36.979Z,5.50
2022-08-17T23:14:15.672Z,5.72
2022-08-17T23:16:42.704Z,5.75
2022-08-17T23:19:13.828Z,5.18
2022-08-17T23:21:40.858Z,4.70
2022-08-17T23:24:08.951Z,5.60
2022-08-17T23:26:38.099Z,5.03
2022-08-17T23:29:06.469Z,4.78
2022-08-17T23:31:34.758Z,4.25
2022-08-17T23:34:02.278Z,4.70
2022-08-17T23:36:29.455Z,4.15
2022-08-17T23:38:56.766Z,4.38
2022-08-17T23:41:23.737Z,4.28
2022-08-17T23:43:51.717Z,4.40
2022-08-17T23:46:20.014Z,3.88
2022-08-17T23:48:47.627Z,4.20
2022-08-17T23:51:15.342Z,4.10
2022-08-17T23:53:46.383Z,4.30
2022-08-17T23:56:13.794Z,4.43
2022-08-17T23:58:42.226Z,4.25
